Time;durP1;ratioP1;P1;durP2;ratioP2;P2;SDS_P1;SDS_P2;PMS_P1;PMS_P2;Temp;Humidity;BMP_temperature;BMP_pressure;BME280_temperature;BME280_humidity;BME280_pressure;Samples;Min_cycle;Max_cycle;Signal;HPM_P1;HPM_P2
2023/12/01 00:01:31;;;;;;;24.33;18.60;;;;;;;1.21;79.31;99667.91;5031620;28;20230;-82
2023/12/01 00:03:58;;;;;;;24.03;19.63;;;;;;;1.09;80.52;99678.06;5031273;28;20275;-82
2023/12/01 00:06:25;;;;;;;24.13;19.13;;;;;;;1.03;80.91;99672.88;5031424;28;20210;-83
2023/12/01 00:08:51;;;;;;;20.17;18.07;;;;;;;1.06;80.10;99666.06;5033610;28;20203;-82
2023/12/01 00:11:17;;;;;;;27.07;19.63;;;;;;;1.18;80.01;99668.72;5033834;28;20677;-81
2023/12/01 00:13:44;;;;;;;22.23;18.30;;;;;;;1.23;80.19;99666.19;5034342;28;20727;-82
2023/12/01 00:16:10;;;;;;;24.33;18.87;;;;;;;1.23;80.69;99673.91;5033364;28;20263;-80
2023/12/01 00:18:37;;;;;;;21.10;17.93;;;;;;;1.28;80.18;99668.78;5027317;28;20237;-81
2023/12/01 00:21:05;;;;;;;20.50;17.13;;;;;;;1.31;80.75;99673.94;5033587;28;20232;-78
2023/12/01 00:23:31;;;;;;;22.50;19.33;;;;;;;1.35;80.56;99670.56;5034741;28;20243;-83
2023/12/01 00:25:58;;;;;;;26.80;19.10;;;;;;;1.36;80.39;99677.41;5025847;28;20202;-81
2023/12/01 00:28:24;;;;;;;25.53;18.37;;;;;;;1.36;79.76;99691.09;5021088;28;20234;-81
2023/12/01 00:30:50;;;;;;;24.80;18.97;;;;;;;1.36;80.07;99688.53;5034683;28;20735;-82
2023/12/01 00:33:17;;;;;;;26.03;19.80;;;;;;;1.35;79.87;99689.41;5037136;28;20230;-79
2023/12/01 00:35:43;;;;;;;23.43;18.93;;;;;;;1.35;80.12;99693.69;5032624;28;20209;-80
2023/12/01 00:38:11;;;;;;;24.17;18.47;;;;;;;1.37;79.52;99692.84;5032387;28;20225;-79
2023/12/01 00:40:37;;;;;;;24.93;19.03;;;;;;;1.33;80.06;99708.25;5037648;28;20229;-79
2023/12/01 00:43:03;;;;;;;25.93;18.50;;;;;;;1.31;80.16;99709.91;5035205;28;20300;-83
2023/12/01 00:45:30;;;;;;;27.63;19.43;;;;;;;1.31;80.01;99713.38;5034745;28;20213;-81
2023/12/01 00:47:56;;;;;;;26.07;19.23;;;;;;;1.29;80.00;99704.78;5035281;28;20206;-83
2023/12/01 00:50:22;;;;;;;27.70;20.63;;;;;;;1.30;80.74;99706.50;5034873;28;20700;-82
2023/12/01 00:52:49;;;;;;;22.53;18.43;;;;;;;1.32;80.17;99702.22;5034521;28;20711;-81
2023/12/01 00:55:17;;;;;;;25.60;19.40;;;;;;;1.32;80.32;99697.09;5037300;28;20216;-82
2023/12/01 00:57:53;;;;;;;24.37;20.50;;;;;;;1.34;80.50;99699.66;5020429;28;20203;-81
2023/12/01 01:00:19;;;;;;;22.23;18.90;;;;;;;1.36;79.61;99710.81;5039166;28;20214;-82
2023/12/01 01:02:46;;;;;;;25.07;19.47;;;;;;;1.36;80.29;99713.41;5034262;28;20222;-82
2023/12/01 01:05:12;;;;;;;22.33;18.43;;;;;;;1.37;80.01;99720.28;5034639;28;20279;-81
2023/12/01 01:07:38;;;;;;;23.97;18.97;;;;;;;1.36;80.46;99718.53;5027288;28;20264;-83
2023/12/01 01:10:06;;;;;;;25.07;19.80;;;;;;;1.30;80.99;99711.63;5035617;28;20206;-81
2023/12/01 01:12:33;;;;;;;26.40;20.43;;;;;;;1.37;80.66;99710.84;5034624;28;20230;-83
2023/12/01 01:15:02;;;;;;;29.70;20.57;;;;;;;1.36;81.17;99708.25;5034754;28;20210;-83
2023/12/01 01:17:29;;;;;;;26.40;20.73;;;;;;;1.35;80.65;99709.97;5034359;28;20665;-83
2023/12/01 01:19:55;;;;;;;27.90;20.90;;;;;;;1.38;80.62;99707.41;5034308;28;20260;-81
2023/12/01 01:22:21;;;;;;;28.47;20.37;;;;;;;1.40;80.39;99712.56;5033063;28;20226;-82
2023/12/01 01:24:48;;;;;;;29.07;19.67;;;;;;;1.41;80.41;99721.13;5034378;28;20592;-81
2023/12/01 01:27:14;;;;;;;26.60;20.83;;;;;;;1.38;80.86;99717.69;5034166;28;20268;-81
2023/12/01 01:29:42;;;;;;;27.33;20.47;;;;;;;1.39;81.08;99711.72;5033516;28;20288;-82
2023/12/01 01:32:08;;;;;;;32.87;20.40;;;;;;;1.41;80.44;99710.84;5034282;28;20292;-84
2023/12/01 01:34:34;;;;;;;31.47;20.47;;;;;;;1.42;80.10;99715.16;5034364;28;20232;-82
2023/12/01 01:37:00;;;;;;;29.27;21.23;;;;;;;1.38;80.79;99706.56;5020403;28;20214;-82
2023/12/01 01:39:27;;;;;;;25.00;20.90;;;;;;;1.40;80.74;99689.44;5034829;28;20206;-83
2023/12/01 01:41:53;;;;;;;25.40;20.60;;;;;;;1.43;81.66;99692.03;5038074;28;20221;-81
2023/12/01 01:44:20;;;;;;;34.33;22.27;;;;;;;1.43;81.64;99689.47;5037816;28;20218;-82
2023/12/01 01:46:48;;;;;;;28.40;20.57;;;;;;;1.48;80.90;99685.19;5037917;28;20259;-84
2023/12/01 01:49:16;;;;;;;29.67;22.00;;;;;;;1.49;81.67;99683.50;5038200;28;20213;-83
2023/12/01 01:51:42;;;;;;;35.47;24.47;;;;;;;1.47;80.92;99688.63;5029466;28;20227;-81
2023/12/01 01:54:10;;;;;;;35.30;23.40;;;;;;;1.47;81.29;99683.47;5039127;28;20210;-80
2023/12/01 01:56:36;;;;;;;30.70;21.50;;;;;;;1.47;81.74;99686.06;5037934;28;20746;-79
2023/12/01 01:59:03;;;;;;;43.73;22.93;;;;;;;1.53;81.02;99691.22;5037237;28;20206;-82
2023/12/01 02:01:29;;;;;;;32.83;21.37;;;;;;;1.53;81.16;99704.09;5037540;28;20226;-81
2023/12/01 02:03:57;;;;;;;32.30;21.20;;;;;;;1.55;80.77;99710.09;5038310;28;20654;-81
2023/12/01 02:06:30;;;;;;;29.73;21.57;;;;;;;1.55;80.45;99717.81;5029228;28;20584;-81
2023/12/01 02:08:57;;;;;;;35.80;22.23;;;;;;;1.57;80.49;99722.97;5037550;28;20221;-81
2023/12/01 02:11:25;;;;;;;30.73;21.60;;;;;;;1.56;80.15;99728.94;5037238;28;20237;-81
2023/12/01 02:13:51;;;;;;;30.43;20.63;;;;;;;1.56;80.60;99737.50;5037191;28;20289;-81
2023/12/01 02:16:18;;;;;;;26.73;20.07;;;;;;;1.58;80.20;99738.38;5037108;28;20256;-82
2023/12/01 02:18:44;;;;;;;27.57;20.37;;;;;;;1.57;79.74;99749.53;5037166;28;20569;-82
2023/12/01 02:21:12;;;;;;;29.03;21.67;;;;;;;1.58;80.35;99740.09;5037015;28;20214;-82
2023/12/01 02:23:39;;;;;;;33.30;22.50;;;;;;;1.60;80.90;99743.53;5037718;28;20257;-83
2023/12/01 02:26:09;;;;;;;33.63;22.20;;;;;;;1.59;80.70;99745.28;5037701;28;20233;-81
2023/12/01 02:28:36;;;;;;;29.90;21.03;;;;;;;1.59;80.21;99728.97;5028897;28;20206;-81
2023/12/01 02:31:02;;;;;;;33.77;22.13;;;;;;;1.56;80.82;99737.50;5037284;28;20773;-83
2023/12/01 02:33:28;;;;;;;29.87;22.03;;;;;;;1.59;81.23;99721.25;5037018;28;20279;-81
2023/12/01 02:35:55;;;;;;;26.97;19.93;;;;;;;1.58;80.50;99729.81;5037309;28;20261;-81
2023/12/01 02:38:21;;;;;;;28.10;20.40;;;;;;;1.56;80.81;99722.09;5037336;28;20209;-81
2023/12/01 02:40:50;;;;;;;30.00;21.13;;;;;;;1.55;80.88;99722.94;5036962;28;20206;-82
2023/12/01 02:43:17;;;;;;;32.30;21.37;;;;;;;1.53;80.91;99718.66;5036808;28;20242;-81
2023/12/01 02:45:44;;;;;;;27.43;21.07;;;;;;;1.50;81.77;99716.91;5037375;28;20912;-80
2023/12/01 02:48:10;;;;;;;30.30;20.73;;;;;;;1.53;81.63;99716.09;5037307;28;20234;-81
2023/12/01 02:50:37;;;;;;;33.10;21.93;;;;;;;1.49;81.52;99712.63;5036892;28;20668;-81
2023/12/01 02:53:04;;;;;;;32.27;20.73;;;;;;;1.53;81.51;99708.38;5036696;28;20754;-82
2023/12/01 02:55:31;;;;;;;35.73;23.50;;;;;;;1.53;80.88;99709.22;5028481;28;20202;-81
2023/12/01 02:57:58;;;;;;;32.43;21.87;;;;;;;1.51;81.06;99704.94;5037066;28;20271;-82
2023/12/01 03:00:25;;;;;;;28.80;20.07;;;;;;;1.51;81.04;99699.78;5036935;28;20202;-81
2023/12/01 03:02:52;;;;;;;31.07;21.47;;;;;;;1.55;81.11;99696.38;5037051;28;20222;-82
2023/12/01 03:05:19;;;;;;;35.10;22.37;;;;;;;1.56;80.91;99703.22;5036485;28;20339;-80
2023/12/01 03:07:46;;;;;;;27.97;21.43;;;;;;;1.55;81.29;99702.38;5027686;28;20206;-83
2023/12/01 03:10:13;;;;;;;27.37;20.93;;;;;;;1.50;81.66;99698.91;5037202;28;20210;-82
2023/12/01 03:12:41;;;;;;;34.97;22.37;;;;;;;1.54;81.45;99697.22;5034257;28;20654;-80
2023/12/01 03:15:11;;;;;;;33.53;22.20;;;;;;;1.56;81.08;99696.38;5031800;28;20201;-80
2023/12/01 03:17:37;;;;;;;32.07;22.20;;;;;;;1.56;81.83;99698.94;5037209;28;20206;-81
2023/12/01 03:20:08;;;;;;;27.63;20.90;;;;;;;1.57;81.99;99695.53;5037272;28;20209;-81
2023/12/01 03:22:34;;;;;;;27.67;22.27;;;;;;;1.57;81.76;99700.69;5035833;28;20222;-81
2023/12/01 03:25:03;;;;;;;31.43;22.43;;;;;;;1.55;81.78;99702.38;5037192;28;20202;-81
2023/12/01 03:27:29;;;;;;;30.87;21.30;;;;;;;1.55;81.99;99699.81;5036602;28;20673;-82
2023/12/01 03:29:55;;;;;;;29.97;20.10;;;;;;;1.60;82.09;99692.09;5036636;28;20257;-80
2023/12/01 03:32:23;;;;;;;28.20;21.20;;;;;;;1.62;81.93;99700.69;5036605;28;20233;-80
2023/12/01 03:34:50;;;;;;;28.93;21.00;;;;;;;1.63;81.21;99705.00;5036684;28;20625;-82
2023/12/01 03:37:16;;;;;;;31.43;20.53;;;;;;;1.62;81.63;99707.56;5035387;28;20207;-81
2023/12/01 03:39:43;;;;;;;33.47;20.53;;;;;;;1.61;81.98;99708.41;5036699;28;20257;-81
2023/12/01 03:42:09;;;;;;;31.30;21.53;;;;;;;1.64;82.00;99705.84;5036287;28;20728;-82
2023/12/01 03:44:36;;;;;;;30.43;22.00;;;;;;;1.64;81.86;99711.00;5036447;28;20216;-80
2023/12/01 03:47:02;;;;;;;27.97;20.33;;;;;;;1.64;80.96;99716.13;5036503;28;20264;-79
2023/12/01 03:49:30;;;;;;;34.17;21.53;;;;;;;1.52;81.50;99712.63;5036249;28;20624;-81
2023/12/01 03:51:56;;;;;;;27.90;20.43;;;;;;;1.62;81.37;99703.25;5019977;28;20289;-81
2023/12/01 03:54:22;;;;;;;31.67;22.17;;;;;;;1.66;81.01;99709.28;5036218;28;20629;-80
2023/12/01 03:56:48;;;;;;;37.80;22.40;;;;;;;1.66;81.40;99717.00;5036015;28;20241;-81
2023/12/01 03:59:15;;;;;;;30.77;22.03;;;;;;;1.65;80.85;99720.44;5041762;28;20276;-81
2023/12/01 04:01:41;;;;;;;37.10;23.43;;;;;;;1.62;81.66;99723.00;5037432;28;20230;-82
2023/12/01 04:04:10;;;;;;;32.83;21.70;;;;;;;1.59;81.71;99714.41;5038822;28;20679;-82
2023/12/01 04:06:41;;;;;;;37.20;22.33;;;;;;;1.62;81.34;99710.97;5036725;28;20668;-81
2023/12/01 04:09:09;;;;;;;37.17;21.63;;;;;;;1.62;81.91;99710.97;5032608;28;20210;-82
2023/12/01 04:11:36;;;;;;;34.97;22.67;;;;;;;1.62;81.74;99704.97;5037568;28;20299;-81
2023/12/01 04:14:03;;;;;;;38.43;22.53;;;;;;;1.61;81.55;99706.69;5038139;28;20221;-82
2023/12/01 04:16:30;;;;;;;37.43;22.87;;;;;;;1.60;81.95;99715.25;5038289;28;20244;-82
2023/12/01 04:18:56;;;;;;;36.63;22.87;;;;;;;1.62;82.42;99707.56;5038165;28;20241;-82
2023/12/01 04:21:22;;;;;;;36.13;23.27;;;;;;;1.63;82.35;99702.44;5037208;28;20214;-82
2023/12/01 04:23:52;;;;;;;37.77;23.87;;;;;;;1.64;81.49;99713.56;5038356;28;20202;-81
2023/12/01 04:26:18;;;;;;;43.00;25.03;;;;;;;1.65;82.03;99716.16;5038252;28;20238;-81
2023/12/01 04:28:45;;;;;;;44.50;25.37;;;;;;;1.57;82.60;99710.09;5027743;28;20203;-82
2023/12/01 04:31:11;;;;;;;50.43;25.63;;;;;;;1.61;82.21;99704.13;5031376;28;20559;-82
2023/12/01 04:33:37;;;;;;;48.37;25.67;;;;;;;1.57;82.45;99703.25;5029518;28;20207;-83
2023/12/01 04:36:06;;;;;;;47.03;25.57;;;;;;;1.58;81.98;99706.66;5035576;28;20256;-81
2023/12/01 04:38:34;;;;;;;43.07;25.07;;;;;;;1.63;82.52;99697.28;5028851;28;20672;-81
2023/12/01 04:41:02;;;;;;;45.30;24.40;;;;;;;1.59;83.00;99691.25;5036872;28;20208;-81
2023/12/01 04:43:28;;;;;;;43.57;23.83;;;;;;;1.59;82.06;99690.41;5029539;28;20285;-81
2023/12/01 04:45:55;;;;;;;47.13;25.93;;;;;;;1.52;82.50;99697.19;5036440;28;20700;-81
2023/12/01 04:48:21;;;;;;;47.77;25.73;;;;;;;1.57;82.52;99689.53;5037142;28;20207;-82
2023/12/01 04:50:49;;;;;;;40.30;24.13;;;;;;;1.57;83.09;99694.69;5036383;28;20714;-81
2023/12/01 04:53:15;;;;;;;42.93;22.73;;;;;;;1.62;82.45;99695.53;5036713;28;20280;-82
2023/12/01 04:55:42;;;;;;;39.30;23.37;;;;;;;1.64;82.50;99706.69;5037549;28;20210;-83
2023/12/01 04:58:09;;;;;;;41.00;24.20;;;;;;;1.67;81.93;99706.72;5036775;28;20256;-81
2023/12/01 05:00:36;;;;;;;40.03;22.13;;;;;;;1.67;81.98;99718.75;5036746;28;20626;-81
2023/12/01 05:03:05;;;;;;;40.23;22.10;;;;;;;1.68;82.12;99720.44;5037533;28;20277;-81
2023/12/01 05:05:33;;;;;;;44.77;24.20;;;;;;;1.68;82.25;99723.88;5029537;28;20211;-81
2023/12/01 05:08:01;;;;;;;33.43;22.67;;;;;;;1.69;82.00;99723.03;5028541;28;20277;-81
2023/12/01 05:10:29;;;;;;;36.97;22.40;;;;;;;1.67;81.94;99722.16;5037109;28;20210;-80
2023/12/01 05:12:57;;;;;;;35.57;22.70;;;;;;;1.62;82.28;99736.69;5035809;28;20264;-82
2023/12/01 05:15:25;;;;;;;35.87;22.73;;;;;;;1.62;82.43;99730.69;5036640;28;20214;-82
2023/12/01 05:17:54;;;;;;;32.93;21.33;;;;;;;1.61;81.94;99737.56;5036786;28;20217;-83
2023/12/01 05:20:23;;;;;;;35.87;20.20;;;;;;;1.59;81.79;99747.84;5036366;28;20202;-82
2023/12/01 05:22:51;;;;;;;28.37;19.33;;;;;;;1.59;82.17;99742.69;5035583;28;20222;-83
2023/12/01 05:25:19;;;;;;;31.23;20.23;;;;;;;1.56;82.36;99745.22;5035724;28;20202;-83
2023/12/01 05:27:47;;;;;;;32.23;19.10;;;;;;;1.56;82.46;99744.38;5035906;28;20252;-84
2023/12/01 05:30:15;;;;;;;24.67;18.03;;;;;;;1.55;82.54;99746.09;5035721;28;20218;-81
2023/12/01 05:32:47;;;;;;;26.20;17.83;;;;;;;1.56;81.90;99742.66;5036065;28;20233;-81
2023/12/01 05:35:15;;;;;;;25.53;17.17;;;;;;;1.51;82.28;99746.94;5035546;28;20202;-81
2023/12/01 05:37:46;;;;;;;23.80;17.43;;;;;;;1.53;81.57;99749.53;5032205;28;20578;-80
2023/12/01 05:40:14;;;;;;;18.13;15.60;;;;;;;1.53;81.38;99747.81;5034943;28;20206;-82
2023/12/01 05:42:41;;;;;;;27.97;17.53;;;;;;;1.50;81.58;99759.78;5034445;28;20214;-81
2023/12/01 05:45:11;;;;;;;22.90;17.67;;;;;;;1.49;82.25;99760.66;5030826;28;20210;-82
2023/12/01 05:47:42;;;;;;;25.07;17.83;;;;;;;1.48;81.74;99769.19;5031867;28;20206;-80
2023/12/01 05:50:12;;;;;;;25.93;17.50;;;;;;;1.45;81.60;99758.88;5012101;28;20229;-81
2023/12/01 05:52:38;;;;;;;24.37;17.07;;;;;;;1.46;82.64;99763.19;5034299;28;20248;-80
2023/12/01 05:55:10;;;;;;;24.47;16.40;;;;;;;1.44;81.88;99772.59;5031124;28;20199;-82
2023/12/01 05:57:36;;;;;;;23.13;17.33;;;;;;;1.43;82.05;99752.84;5030987;28;20206;-83
2023/12/01 06:00:04;;;;;;;24.20;16.83;;;;;;;1.47;82.51;99759.78;5034330;28;20202;-82
2023/12/01 06:02:32;;;;;;;20.60;16.57;;;;;;;1.46;82.49;99760.59;5034592;28;20297;-83
2023/12/01 06:04:59;;;;;;;22.33;15.03;;;;;;;1.43;81.85;99761.47;5034383;28;20214;-81
2023/12/01 06:07:26;;;;;;;18.67;14.90;;;;;;;1.44;81.59;99775.16;5031397;28;20207;-81
2023/12/01 06:09:53;;;;;;;20.13;15.53;;;;;;;1.41;81.09;99781.16;5027507;28;20210;-80
2023/12/01 06:12:19;;;;;;;19.03;15.13;;;;;;;1.38;81.69;99792.25;5029409;28;20590;-82
2023/12/01 06:14:45;;;;;;;19.13;15.97;;;;;;;1.39;81.36;99790.56;5031696;28;20202;-81
2023/12/01 06:17:12;;;;;;;17.23;14.13;;;;;;;1.36;80.65;99796.53;5035185;28;20228;-82
2023/12/01 06:19:38;;;;;;;17.53;15.00;;;;;;;1.32;80.61;99811.94;5034745;28;20206;-81
2023/12/01 06:22:04;;;;;;;15.43;13.83;;;;;;;1.22;80.96;99818.69;5033903;28;20223;-82
2023/12/01 06:24:33;;;;;;;19.00;14.47;;;;;;;1.21;81.23;99832.41;5035600;28;20248;-82
2023/12/01 06:27:03;;;;;;;15.87;13.43;;;;;;;1.22;80.72;99831.56;5037852;28;20218;-82
2023/12/01 06:29:30;;;;;;;13.50;12.10;;;;;;;1.19;79.75;99846.97;5033888;28;20210;-81
2023/12/01 06:31:57;;;;;;;14.50;12.97;;;;;;;1.12;80.54;99863.16;5019495;28;20663;-82
2023/12/01 06:34:23;;;;;;;16.27;12.53;;;;;;;1.14;79.87;99864.03;5037510;28;20198;-81
2023/12/01 06:36:49;;;;;;;14.33;12.33;;;;;;;1.14;80.48;99874.31;5036916;28;20279;-81
2023/12/01 06:39:16;;;;;;;15.90;12.73;;;;;;;1.14;79.87;99869.19;5037349;28;20202;-81
2023/12/01 06:41:46;;;;;;;17.00;13.30;;;;;;;1.16;80.13;99880.34;5036956;28;20249;-80
2023/12/01 06:44:12;;;;;;;14.37;12.87;;;;;;;1.15;80.12;99882.06;5027146;28;20213;-82
2023/12/01 06:46:39;;;;;;;13.80;12.30;;;;;;;1.14;79.11;99893.16;5039306;28;20225;-81
2023/12/01 06:49:05;;;;;;;15.07;12.73;;;;;;;1.15;79.93;99900.03;5038141;28;20769;-81
2023/12/01 06:51:32;;;;;;;14.83;11.57;;;;;;;1.12;79.85;99902.56;5038039;28;20301;-82
2023/12/01 06:53:58;;;;;;;16.47;12.73;;;;;;;1.15;79.42;99907.75;5037273;28;20221;-81
2023/12/01 06:56:24;;;;;;;17.63;12.53;;;;;;;1.13;79.28;99912.03;5037586;28;20202;-81
2023/12/01 06:58:52;;;;;;;20.10;14.50;;;;;;;1.16;80.13;99922.31;5037388;28;20202;-82
2023/12/01 07:01:19;;;;;;;19.80;14.23;;;;;;;1.13;79.27;99927.44;5032765;28;20625;-80
2023/12/01 07:03:45;;;;;;;18.10;14.43;;;;;;;1.12;79.88;99918.00;5044018;28;20647;-82
2023/12/01 07:06:12;;;;;;;18.00;13.97;;;;;;;1.18;79.63;99920.63;5042453;28;20202;-81
2023/12/01 07:08:38;;;;;;;14.20;12.73;;;;;;;1.17;79.46;99924.06;5042688;28;20202;-82
2023/12/01 07:11:05;;;;;;;15.97;13.63;;;;;;;1.17;79.79;99931.75;5033776;28;20216;-81
2023/12/01 07:13:32;;;;;;;16.77;13.97;;;;;;;1.23;79.50;99927.53;5039527;28;20280;-83
2023/12/01 07:15:59;;;;;;;24.63;16.30;;;;;;;1.23;80.03;99924.94;5041122;28;20649;-82
2023/12/01 07:18:26;;;;;;;19.27;14.73;;;;;;;1.24;79.86;99934.41;5042144;28;20203;-81
2023/12/01 07:20:52;;;;;;;22.30;15.93;;;;;;;1.17;80.05;99944.63;5031426;28;20257;-82
2023/12/01 07:23:18;;;;;;;20.50;16.17;;;;;;;1.17;80.00;99954.03;5041691;28;20230;-82
2023/12/01 07:25:47;;;;;;;21.40;16.27;;;;;;;1.21;80.55;99947.22;5040435;28;20218;-84
2023/12/01 07:28:14;;;;;;;18.50;15.10;;;;;;;1.21;80.03;99950.66;5042618;28;20229;-84
2023/12/01 07:30:41;;;;;;;21.90;15.57;;;;;;;1.22;79.74;99952.38;5039453;28;20210;-83
2023/12/01 07:33:09;;;;;;;19.20;14.97;;;;;;;1.19;80.25;99952.34;5041217;28;20229;-83
2023/12/01 07:35:35;;;;;;;21.63;15.87;;;;;;;1.18;80.44;99954.03;5040464;28;20206;-83
2023/12/01 07:38:04;;;;;;;20.33;14.30;;;;;;;1.18;80.38;99959.19;5040746;28;20210;-83
2023/12/01 07:40:32;;;;;;;21.97;15.07;;;;;;;1.15;79.90;99964.31;5034970;28;20203;-82
2023/12/01 07:42:59;;;;;;;17.80;13.57;;;;;;;1.11;80.45;99961.66;5042236;28;20641;-82
2023/12/01 07:45:25;;;;;;;17.10;14.17;;;;;;;1.12;80.24;99965.97;5032222;28;20230;-82
2023/12/01 07:47:53;;;;;;;21.13;14.10;;;;;;;1.12;79.27;99974.53;5034006;28;20207;-83
2023/12/01 07:50:22;;;;;;;17.57;14.67;;;;;;;1.03;80.40;99982.16;5035783;28;20207;-81
2023/12/01 07:52:50;;;;;;;16.53;13.60;;;;;;;1.08;79.38;99982.19;5034253;28;20235;-81
2023/12/01 07:55:18;;;;;;;15.67;13.50;;;;;;;1.08;79.09;99990.75;5036653;28;20560;-83
2023/12/01 07:57:44;;;;;;;19.53;14.40;;;;;;;1.04;79.18;99998.44;5031478;28;20207;-82
2023/12/01 08:00:15;;;;;;;16.20;13.20;;;;;;;1.07;79.58;100006.16;5036352;28;20206;-80
2023/12/01 08:02:41;;;;;;;20.07;14.93;;;;;;;1.08;80.01;100005.34;5037162;28;20229;-80
2023/12/01 08:05:13;;;;;;;17.00;14.07;;;;;;;1.13;79.20;100014.84;5036436;28;20215;-80
2023/12/01 08:07:42;;;;;;;14.53;12.13;;;;;;;1.18;78.49;100022.59;5037083;28;20575;-82
2023/12/01 08:10:14;;;;;;;21.67;13.87;;;;;;;1.12;78.82;100045.66;5036801;28;20667;-82
2023/12/01 08:12:41;;;;;;;16.77;14.03;;;;;;;1.10;78.92;100047.34;5034678;28;20254;-81
2023/12/01 08:15:09;;;;;;;14.90;13.23;;;;;;;1.07;78.69;100049.84;5016814;28;20230;-81
2023/12/01 08:17:36;;;;;;;14.50;12.87;;;;;;;1.00;78.28;100064.34;5031835;28;20210;-81
2023/12/01 08:20:05;;;;;;;13.77;11.83;;;;;;;0.89;78.16;100079.63;5036954;28;20268;-79
2023/12/01 08:22:32;;;;;;;12.33;10.87;;;;;;;0.89;77.92;100084.75;5036690;28;20230;-80
2023/12/01 08:25:00;;;;;;;15.60;13.23;;;;;;;0.79;78.37;100077.72;5035253;28;20216;-82
2023/12/01 08:27:26;;;;;;;16.60;13.27;;;;;;;0.81;79.67;100064.91;5034962;28;20213;-81
2023/12/01 08:29:53;;;;;;;16.27;13.10;;;;;;;0.90;79.76;100055.63;5027501;28;20218;-81
2023/12/01 08:32:19;;;;;;;20.70;15.47;;;;;;;1.03;79.57;100053.22;5035962;28;20226;-83
2023/12/01 08:34:45;;;;;;;16.57;13.30;;;;;;;1.01;78.77;100045.50;5036264;28;20584;-80
2023/12/01 08:37:12;;;;;;;18.37;15.67;;;;;;;0.99;79.57;100054.88;5028449;28;20206;-80
2023/12/01 08:39:38;;;;;;;17.97;14.10;;;;;;;1.08;78.99;100051.59;5030179;28;20265;-82
2023/12/01 08:42:06;;;;;;;18.83;13.83;;;;;;;1.11;80.25;100041.34;5027817;28;20234;-82
2023/12/01 08:44:32;;;;;;;19.70;14.43;;;;;;;1.13;80.36;100035.41;5034292;28;20252;-82
2023/12/01 08:46:59;;;;;;;16.60;14.07;;;;;;;1.16;80.08;100038.00;5035566;28;20217;-80
2023/12/01 08:49:25;;;;;;;20.87;14.57;;;;;;;1.21;79.91;100052.59;5031110;28;20198;-81
2023/12/01 08:51:55;;;;;;;18.97;14.43;;;;;;;1.14;79.72;100049.97;5029209;28;20234;-80
2023/12/01 08:54:21;;;;;;;17.93;13.73;;;;;;;1.03;80.53;100043.84;5038569;28;20222;-80
2023/12/01 08:56:48;;;;;;;20.70;15.33;;;;;;;0.98;80.77;100030.03;5036667;28;20293;-82
2023/12/01 08:59:16;;;;;;;20.17;15.23;;;;;;;1.02;80.63;100018.97;5035929;28;20625;-80
2023/12/01 09:01:42;;;;;;;22.73;14.23;;;;;;;1.13;80.63;100021.66;5018122;28;20712;-80
2023/12/01 09:04:09;;;;;;;19.30;14.37;;;;;;;1.15;80.28;100023.44;5016319;28;20592;-81
2023/12/01 09:06:36;;;;;;;21.03;15.50;;;;;;;1.05;80.82;100028.41;5015244;28;20282;-81
2023/12/01 09:09:06;;;;;;;19.70;14.43;;;;;;;1.10;80.40;100019.91;5016649;28;20207;-81
2023/12/01 09:11:32;;;;;;;20.40;14.93;;;;;;;1.15;80.67;100022.53;5015585;28;20246;-81
2023/12/01 09:13:59;;;;;;;19.00;14.67;;;;;;;1.19;80.45;100020.03;5016137;28;20227;-80
2023/12/01 09:16:27;;;;;;;21.60;15.23;;;;;;;1.25;79.51;100033.81;5016919;28;20266;-81
2023/12/01 09:18:53;;;;;;;21.33;14.90;;;;;;;1.25;79.20;100049.22;5018214;28;20769;-81
2023/12/01 09:21:19;;;;;;;21.67;14.90;;;;;;;1.20;77.84;100074.88;5014985;28;20202;-80
2023/12/01 09:23:46;;;;;;;17.03;14.00;;;;;;;1.14;78.33;100093.66;5016760;28;20257;-81
2023/12/01 09:26:17;;;;;;;19.53;14.30;;;;;;;1.15;78.67;100100.53;5015645;28;20202;-80
2023/12/01 09:28:43;;;;;;;17.93;13.63;;;;;;;1.10;77.96;100106.44;5013756;28;20211;-80
2023/12/01 09:31:15;;;;;;;19.83;14.33;;;;;;;1.11;78.75;100111.63;5014773;28;20260;-79
2023/12/01 09:33:43;;;;;;;20.63;15.17;;;;;;;1.13;78.62;100099.66;5008238;28;20223;-80
2023/12/01 09:36:11;;;;;;;16.97;13.10;;;;;;;1.11;77.96;100109.06;5015005;28;20265;-81
2023/12/01 09:38:37;;;;;;;16.13;14.27;;;;;;;1.02;77.46;100121.75;5019918;28;20214;-80
2023/12/01 09:41:04;;;;;;;18.90;14.03;;;;;;;0.89;78.93;100120.72;5022827;28;20894;-82
2023/12/01 09:43:31;;;;;;;16.70;14.00;;;;;;;1.06;78.38;100123.53;5018236;28;20294;-80
2023/12/01 09:45:58;;;;;;;16.93;13.23;;;;;;;1.13;78.40;100121.91;5017993;28;20673;-80
2023/12/01 09:48:24;;;;;;;15.53;12.17;;;;;;;1.12;77.41;100122.75;5017877;28;20206;-81
2023/12/01 09:50:52;;;;;;;14.47;12.17;;;;;;;1.13;77.48;100134.75;5016205;28;20221;-80
2023/12/01 09:53:19;;;;;;;16.23;11.93;;;;;;;1.14;76.89;100146.78;5016462;28;20705;-81
2023/12/01 09:55:45;;;;;;;14.57;11.73;;;;;;;1.12;76.66;100151.88;5014390;28;20207;-81
2023/12/01 09:58:13;;;;;;;15.57;11.57;;;;;;;1.11;76.49;100163.03;5015517;28;20644;-79
2023/12/01 10:00:39;;;;;;;12.30;10.40;;;;;;;1.10;76.83;100165.56;5017328;28;20224;-79
2023/12/01 10:03:12;;;;;;;14.60;12.20;;;;;;;1.08;76.51;100162.13;5018422;28;20222;-80
2023/12/01 10:05:38;;;;;;;12.20;10.33;;;;;;;1.12;77.20;100156.19;5021513;28;20205;-81
2023/12/01 10:08:06;;;;;;;15.33;11.17;;;;;;;1.15;76.78;100167.38;5018017;28;20261;-82
2023/12/01 10:10:44;;;;;;;19.07;13.27;;;;;;;1.16;76.33;100175.94;5016416;28;20218;-83
2023/12/01 10:13:11;;;;;;;13.33;11.37;;;;;;;1.16;76.37;100181.94;5021959;28;20227;-82
2023/12/01 10:15:38;;;;;;;14.00;11.93;;;;;;;1.15;75.29;100200.78;5017689;28;20245;-80
2023/12/01 10:18:10;;;;;;;13.53;11.13;;;;;;;1.19;75.75;100206.84;5025955;28;20211;-81
2023/12/01 10:20:36;;;;;;;12.60;11.17;;;;;;;1.33;75.21;100207.91;5032895;28;20238;-80
2023/12/01 10:23:16;;;;;;;12.97;10.63;;;;;;;1.46;75.33;100218.38;5034995;28;20230;-81
2023/12/01 10:25:47;;;;;;;13.53;11.13;;;;;;;1.51;74.80;100227.03;5016795;28;20222;-81
2023/12/01 10:28:14;;;;;;;11.63;10.40;;;;;;;1.41;74.39;100243.16;5036102;28;20214;-81
2023/12/01 10:30:52;;;;;;;13.13;11.07;;;;;;;1.50;74.69;100248.44;5036934;28;20202;-80
2023/12/01 10:33:19;;;;;;;13.63;11.53;;;;;;;1.56;74.38;100251.09;5037185;28;20300;-81
2023/12/01 10:36:01;;;;;;;17.53;14.70;;;;;;;1.56;74.51;100253.66;5039053;28;20225;-79
2023/12/01 10:38:30;;;;;;;19.27;14.23;;;;;;;1.59;74.71;100252.00;5022565;28;20213;-83
2023/12/01 10:40:58;;;;;;;14.90;12.30;;;;;;;1.65;74.52;100253.81;5022361;28;20262;-83
2023/12/01 10:43:26;;;;;;;12.63;11.37;;;;;;;1.64;74.77;100252.06;5032460;28;20218;-83
2023/12/01 10:45:53;;;;;;;13.07;11.57;;;;;;;1.54;73.17;100266.50;5034955;28;20209;-81
2023/12/01 10:48:23;;;;;;;13.80;12.40;;;;;;;1.68;73.55;100274.41;5036481;28;20260;-81
2023/12/01 10:50:52;;;;;;;12.37;10.80;;;;;;;1.77;72.99;100284.00;5036343;28;20198;-80
2023/12/01 10:53:19;;;;;;;12.10;10.90;;;;;;;1.55;73.09;100293.97;5029961;28;20241;-82
2023/12/01 10:55:48;;;;;;;11.13;9.93;;;;;;;1.74;73.08;100289.09;5030643;28;20728;-82
2023/12/01 10:58:24;;;;;;;14.63;10.83;;;;;;;1.87;76.35;100243.81;5035795;28;20210;-83
2023/12/01 11:00:53;;;;;;;12.70;10.87;;;;;;;1.92;77.52;100216.41;5039353;28;20262;-80
2023/12/01 11:03:22;;;;;;;12.57;10.97;;;;;;;2.04;77.66;100188.25;5037350;28;20232;-81
2023/12/01 11:05:54;;;;;;;13.10;11.57;;;;;;;1.99;75.98;100184.75;5031931;28;20728;-83
2023/12/01 11:08:34;;;;;;;12.23;10.80;;;;;;;1.82;73.64;100223.16;5035592;28;20249;-84
2023/12/01 11:11:12;;;;;;;10.87;9.37;;;;;;;1.83;72.67;100258.34;5027759;28;20258;-82
2023/12/01 11:13:57;;;;;;;11.37;10.17;;;;;;;1.70;73.06;100275.31;5016818;28;20205;-81
2023/12/01 11:16:27;;;;;;;13.00;11.27;;;;;;;1.80;73.30;100268.59;5036520;28;20638;-81
2023/12/01 11:18:56;;;;;;;14.37;10.40;;;;;;;1.95;73.72;100257.66;5037291;28;20224;-84
2023/12/01 11:21:25;;;;;;;10.80;9.60;;;;;;;2.09;72.88;100262.97;5024394;28;20684;-81
2023/12/01 11:23:52;;;;;;;14.43;10.53;;;;;;;2.09;71.77;100287.00;5034717;28;20239;-85